Time;durP1;ratioP1;P1;durP2;ratioP2;P2;SDS_P1;SDS_P2;PMS_P1;PMS_P2;Temp;Humidity;BMP_temperature;BMP_pressure;BME280_temperature;BME280_humidity;BME280_pressure;Samples;Min_cycle;Max_cycle;Signal;HPM_P1;HPM_P2
2021/01/29 00:01:38;;;;;;;3.45;2.20;;;;;;;;;;4953034;28;105546;-61
2021/01/29 00:04:03;;;;;;;2.88;2.10;;;;;;;;;;4953838;28;109807;-61
2021/01/29 00:06:29;;;;;;;2.22;1.83;;;;;;;;;;4954563;28;105566;-61
2021/01/29 00:08:54;;;;;;;2.10;1.90;;;;;;;;;;4954153;28;104929;-62
2021/01/29 00:11:20;;;;;;;2.03;1.80;;;;;;;;;;4952254;28;105458;-62
2021/01/29 00:13:45;;;;;;;2.20;1.90;;;;;;;;;;4953448;28;105432;-62
2021/01/29 00:16:10;;;;;;;1.45;1.35;;;;;;;;;;4955858;28;106058;-62
2021/01/29 00:18:36;;;;;;;1.88;1.60;;;;;;;;;;4951963;28;108694;-62
2021/01/29 00:21:02;;;;;;;1.88;1.50;;;;;;;;;;4953607;28;105533;-62
2021/01/29 00:23:27;;;;;;;1.30;1.20;;;;;;;;;;4952961;28;106324;-61
2021/01/29 00:25:53;;;;;;;1.85;1.65;;;;;;;;;;4953983;28;105554;-62
2021/01/29 00:28:22;;;;;;;1.45;1.30;;;;;;;;;;4951205;28;105099;-62
2021/01/29 00:30:50;;;;;;;1.52;1.20;;;;;;;;;;4953301;28;104994;-62
2021/01/29 00:33:16;;;;;;;1.50;1.40;;;;;;;;;;4954081;28;104963;-62
2021/01/29 00:35:42;;;;;;;1.38;1.27;;;;;;;;;;4953974;28;104950;-62
2021/01/29 00:38:07;;;;;;;1.05;1.02;;;;;;;;;;4954453;28;105247;-62
2021/01/29 00:40:33;;;;;;;1.50;1.10;;;;;;;;;;4954100;28;105231;-62
2021/01/29 00:42:59;;;;;;;1.23;1.13;;;;;;;;;;4952393;28;106954;-61
2021/01/29 00:45:28;;;;;;;1.20;1.10;;;;;;;;;;4952738;28;105314;-61
2021/01/29 00:47:54;;;;;;;1.45;1.23;;;;;;;;;;4939963;28;105046;-62
2021/01/29 00:50:20;;;;;;;1.20;1.10;;;;;;;;;;4923434;28;107531;-62
2021/01/29 00:52:46;;;;;;;1.40;1.30;;;;;;;;;;4922288;28;104960;-61
2021/01/29 00:55:12;;;;;;;1.60;1.20;;;;;;;;;;4952830;28;105476;-61
2021/01/29 00:57:49;;;;;;;1.63;1.35;;;;;;;;;;4937324;28;107347;-61
2021/01/29 01:00:40;;;;;;;1.25;1.15;;;;;;;;;;4953610;28;106200;-61
2021/01/29 01:03:13;;;;;;;1.48;1.20;;;;;;;;;;4938814;28;107286;-61
2021/01/29 01:05:42;;;;;;;1.17;1.05;;;;;;;;;;4953317;28;105204;-61
2021/01/29 01:08:09;;;;;;;1.25;1.15;;;;;;;;;;4961788;28;105049;-61
2021/01/29 01:10:53;;;;;;;1.90;1.20;;;;;;;;;;4953383;28;105188;-61
2021/01/29 01:13:39;;;;;;;1.23;1.00;;;;;;;;;;4974585;28;107850;-61
2021/01/29 01:16:40;;;;;;;1.20;1.10;;;;;;;;;;4935517;28;105467;-61
2021/01/29 01:19:14;;;;;;;1.10;1.00;;;;;;;;;;4943124;28;107730;-61
2021/01/29 01:21:48;;;;;;;1.00;1.00;;;;;;;;;;4953587;28;105073;-61
2021/01/29 01:24:39;;;;;;;1.08;0.98;;;;;;;;;;4955958;28;106771;-61
2021/01/29 01:27:12;;;;;;;1.00;1.00;;;;;;;;;;4950148;28;105608;-61
2021/01/29 01:29:58;;;;;;;1.20;1.10;;;;;;;;;;4951802;28;105009;-61
2021/01/29 01:32:23;;;;;;;1.20;1.10;;;;;;;;;;4947298;28;107154;-61
2021/01/29 01:35:24;;;;;;;1.23;1.08;;;;;;;;;;4947058;28;105239;-61
2021/01/29 01:37:50;;;;;;;1.20;1.10;;;;;;;;;;4952016;28;105069;-61
2021/01/29 01:40:34;;;;;;;1.13;1.00;;;;;;;;;;4953427;28;106918;-61
2021/01/29 01:43:00;;;;;;;1.83;1.48;;;;;;;;;;4953969;28;105091;-61
2021/01/29 01:45:30;;;;;;;1.30;1.20;;;;;;;;;;4937941;28;108519;-61
2021/01/29 01:48:08;;;;;;;1.15;1.05;;;;;;;;;;4956083;28;108487;-61
2021/01/29 01:50:56;;;;;;;1.20;1.10;;;;;;;;;;4938882;28;105816;-61
2021/01/29 01:53:42;;;;;;;0.98;0.90;;;;;;;;;;4921598;28;106821;-61
2021/01/29 01:56:41;;;;;;;1.20;1.10;;;;;;;;;;4923718;28;108029;-61
2021/01/29 01:59:34;;;;;;;1.17;1.08;;;;;;;;;;4957599;28;105876;-61
2021/01/29 02:02:23;;;;;;;1.05;0.95;;;;;;;;;;4925608;28;107252;-61
2021/01/29 02:05:22;;;;;;;1.10;1.00;;;;;;;;;;4926046;28;105140;-61
2021/01/29 02:08:07;;;;;;;1.30;1.13;;;;;;;;;;4944115;28;105088;-61
2021/01/29 02:10:59;;;;;;;1.20;1.10;;;;;;;;;;4947513;28;105420;-61
2021/01/29 02:13:37;;;;;;;1.15;1.05;;;;;;;;;;4928757;28;105287;-61
2021/01/29 02:17:01;;;;;;;1.00;0.90;;;;;;;;;;4952898;28;106571;-61
2021/01/29 02:20:14;;;;;;;1.10;1.00;;;;;;;;;;4958425;28;105118;-61
2021/01/29 02:23:17;;;;;;;1.00;1.00;;;;;;;;;;4963739;28;105419;-61
2021/01/29 02:26:33;;;;;;;0.93;0.90;;;;;;;;;;4956188;28;106522;-61
2021/01/29 02:29:15;;;;;;;0.88;0.88;;;;;;;;;;4946710;28;105080;-61
2021/01/29 02:32:33;;;;;;;1.02;0.90;;;;;;;;;;4955284;28;106835;-61
2021/01/29 02:35:18;;;;;;;1.05;1.00;;;;;;;;;;4932031;28;107248;-61
2021/01/29 02:37:44;;;;;;;1.10;1.00;;;;;;;;;;4961173;28;105319;-61
2021/01/29 02:40:44;;;;;;;1.10;1.00;;;;;;;;;;4950585;28;104967;-61
2021/01/29 02:43:19;;;;;;;1.05;0.90;;;;;;;;;;4944744;28;107236;-61
2021/01/29 02:46:30;;;;;;;1.05;0.98;;;;;;;;;;4951972;28;105017;-61
2021/01/29 02:49:27;;;;;;;0.90;0.90;;;;;;;;;;4946112;28;105623;-61
2021/01/29 02:52:19;;;;;;;1.05;0.95;;;;;;;;;;4954437;28;105400;-61
2021/01/29 02:55:35;;;;;;;0.85;0.85;;;;;;;;;;4949232;28;105476;-61
2021/01/29 02:58:08;;;;;;;0.90;0.90;;;;;;;;;;4930615;28;108041;-61
2021/01/29 03:01:07;;;;;;;1.02;0.95;;;;;;;;;;4953981;28;105120;-61
2021/01/29 03:03:59;;;;;;;1.20;1.10;;;;;;;;;;4954956;28;107127;-61
2021/01/29 03:06:55;;;;;;;0.95;0.90;;;;;;;;;;4939649;28;106370;-61
2021/01/29 03:09:52;;;;;;;0.90;0.90;;;;;;;;;;4936722;28;106772;-61
2021/01/29 03:12:43;;;;;;;1.73;0.90;;;;;;;;;;4946271;28;105204;-61
2021/01/29 03:15:51;;;;;;;0.93;0.90;;;;;;;;;;4945905;28;105369;-61
2021/01/29 03:18:38;;;;;;;0.80;0.80;;;;;;;;;;4952989;28;105290;-61
2021/01/29 03:21:27;;;;;;;0.95;0.90;;;;;;;;;;4950534;28;105225;-61
2021/01/29 03:24:15;;;;;;;1.00;0.90;;;;;;;;;;4952051;28;105123;-61
2021/01/29 03:27:04;;;;;;;0.93;0.93;;;;;;;;;;4942850;28;104995;-61
2021/01/29 03:29:54;;;;;;;1.00;1.00;;;;;;;;;;4952356;28;104973;-61
2021/01/29 03:32:38;;;;;;;0.98;0.95;;;;;;;;;;4945700;28;105841;-61
2021/01/29 03:35:32;;;;;;;1.02;0.93;;;;;;;;;;4954519;28;105049;-61
2021/01/29 03:38:25;;;;;;;1.38;1.00;;;;;;;;;;4953406;28;104987;-61
2021/01/29 03:41:19;;;;;;;1.13;0.98;;;;;;;;;;4960021;28;104976;-61
2021/01/29 03:44:24;;;;;;;1.08;1.00;;;;;;;;;;4954808;28;105207;-61
2021/01/29 03:47:20;;;;;;;1.00;0.95;;;;;;;;;;4951180;28;104944;-61
2021/01/29 03:50:19;;;;;;;0.98;0.98;;;;;;;;;;4939301;28;106093;-61
2021/01/29 03:53:26;;;;;;;0.80;0.80;;;;;;;;;;4943823;28;105020;-61
2021/01/29 03:56:15;;;;;;;1.00;0.90;;;;;;;;;;4950952;28;105113;-61
2021/01/29 03:59:23;;;;;;;1.00;1.00;;;;;;;;;;4952471;28;105229;-61
2021/01/29 04:02:30;;;;;;;0.80;0.80;;;;;;;;;;4926392;28;105069;-61
2021/01/29 04:05:20;;;;;;;1.20;1.10;;;;;;;;;;4953080;28;105141;-61
2021/01/29 04:08:13;;;;;;;0.90;0.90;;;;;;;;;;4943829;28;105382;-61
2021/01/29 04:10:58;;;;;;;1.20;1.10;;;;;;;;;;4929643;28;105257;-61
2021/01/29 04:13:41;;;;;;;1.10;1.00;;;;;;;;;;4950638;28;105114;-61
2021/01/29 04:16:34;;;;;;;1.50;1.13;;;;;;;;;;4929200;28;106835;-61
2021/01/29 04:19:00;;;;;;;1.50;1.10;;;;;;;;;;4938482;28;104950;-61
2021/01/29 04:21:33;;;;;;;1.35;1.20;;;;;;;;;;4937957;28;105035;-61
2021/01/29 04:24:05;;;;;;;1.10;1.00;;;;;;;;;;4937184;28;106698;-61
2021/01/29 04:26:33;;;;;;;1.77;1.10;;;;;;;;;;4955251;28;104936;-61
2021/01/29 04:29:03;;;;;;;1.17;1.08;;;;;;;;;;4953300;28;105591;-61
2021/01/29 04:31:29;;;;;;;1.17;0.93;;;;;;;;;;4943436;28;105716;-61
2021/01/29 04:34:01;;;;;;;1.33;1.05;;;;;;;;;;4938233;28;105915;-61
2021/01/29 04:36:28;;;;;;;1.25;1.10;;;;;;;;;;4955886;28;108374;-61
2021/01/29 04:39:00;;;;;;;1.58;1.17;;;;;;;;;;4939105;28;105002;-61
2021/01/29 04:41:31;;;;;;;1.20;1.10;;;;;;;;;;4942667;28;105312;-61
2021/01/29 04:44:35;;;;;;;1.98;1.20;;;;;;;;;;4954155;28;104948;-61
2021/01/29 04:47:25;;;;;;;1.13;1.02;;;;;;;;;;4924695;28;105442;-61
2021/01/29 04:50:12;;;;;;;2.03;1.30;;;;;;;;;;4954746;28;105437;-61
2021/01/29 04:53:12;;;;;;;1.58;1.20;;;;;;;;;;4953820;28;105748;-61
2021/01/29 04:55:52;;;;;;;1.20;1.10;;;;;;;;;;4958055;28;104951;-61
2021/01/29 04:58:58;;;;;;;1.25;1.15;;;;;;;;;;4960630;28;108355;-61
2021/01/29 05:02:11;;;;;;;1.48;1.20;;;;;;;;;;4921308;28;105749;-61
2021/01/29 05:05:14;;;;;;;1.60;1.35;;;;;;;;;;4954792;28;105222;-61
2021/01/29 05:08:13;;;;;;;1.25;1.05;;;;;;;;;;4952247;28;105292;-61
2021/01/29 05:11:26;;;;;;;1.33;1.20;;;;;;;;;;4962490;28;105279;-61
2021/01/29 05:14:19;;;;;;;1.38;1.13;;;;;;;;;;4954576;28;105575;-61
2021/01/29 05:17:09;;;;;;;1.45;1.25;;;;;;;;;;4952918;28;105528;-61
2021/01/29 05:20:02;;;;;;;1.25;1.15;;;;;;;;;;4955314;28;105073;-61
2021/01/29 05:22:37;;;;;;;2.22;1.40;;;;;;;;;;4958607;28;105718;-61
2021/01/29 05:25:27;;;;;;;1.33;1.20;;;;;;;;;;4954907;28;105514;-61
2021/01/29 05:27:58;;;;;;;1.90;1.40;;;;;;;;;;4955163;28;105678;-61
2021/01/29 05:30:46;;;;;;;1.50;1.40;;;;;;;;;;4953820;28;105535;-61
2021/01/29 05:33:16;;;;;;;2.60;1.40;;;;;;;;;;4956894;28;106621;-61
2021/01/29 05:36:06;;;;;;;1.25;1.10;;;;;;;;;;4955592;28;107621;-61
2021/01/29 05:38:38;;;;;;;1.63;1.35;;;;;;;;;;4955661;28;105032;-61
2021/01/29 05:41:03;;;;;;;2.30;1.50;;;;;;;;;;4952751;28;105445;-61
2021/01/29 05:43:31;;;;;;;3.05;2.13;;;;;;;;;;4953224;28;105442;-61
2021/01/29 05:46:05;;;;;;;2.47;1.60;;;;;;;;;;4956127;28;105383;-61
2021/01/29 05:48:52;;;;;;;2.20;1.63;;;;;;;;;;4952926;28;104903;-61
2021/01/29 05:51:38;;;;;;;1.63;1.42;;;;;;;;;;4953146;28;105046;-61
2021/01/29 05:54:29;;;;;;;3.33;2.20;;;;;;;;;;4954103;28;105005;-61
2021/01/29 05:57:18;;;;;;;3.53;2.20;;;;;;;;;;4943801;28;106034;-61
2021/01/29 05:59:56;;;;;;;3.15;2.13;;;;;;;;;;4952096;28;105080;-61
2021/01/29 06:02:30;;;;;;;8.75;5.70;;;;;;;;;;4953506;28;105348;-61
2021/01/29 06:05:20;;;;;;;6.88;4.82;;;;;;;;;;4954682;28;104953;-61
2021/01/29 06:07:56;;;;;;;5.15;2.97;;;;;;;;;;4952733;28;104889;-61
2021/01/29 06:10:27;;;;;;;1.85;1.70;;;;;;;;;;4957385;28;105517;-62
2021/01/29 06:13:40;;;;;;;3.08;1.70;;;;;;;;;;4952148;28;105375;-62
2021/01/29 06:16:34;;;;;;;1.83;1.38;;;;;;;;;;4931976;28;105110;-62
2021/01/29 06:19:23;;;;;;;1.98;1.50;;;;;;;;;;4954355;28;105600;-62
2021/01/29 06:22:14;;;;;;;1.92;1.40;;;;;;;;;;4952761;28;105552;-62
2021/01/29 06:24:51;;;;;;;1.60;1.50;;;;;;;;;;4953781;28;105194;-62
2021/01/29 06:27:51;;;;;;;2.75;1.50;;;;;;;;;;4962781;28;105681;-62
2021/01/29 06:30:58;;;;;;;2.40;1.40;;;;;;;;;;4953362;28;105129;-62
2021/01/29 06:34:02;;;;;;;1.75;1.30;;;;;;;;;;4928957;28;105465;-62
2021/01/29 06:36:49;;;;;;;1.77;1.40;;;;;;;;;;4935082;28;105924;-62
2021/01/29 06:39:41;;;;;;;2.33;1.50;;;;;;;;;;4952078;28;104989;-62
2021/01/29 06:42:41;;;;;;;2.47;1.50;;;;;;;;;;4947901;28;106069;-62
2021/01/29 06:45:06;;;;;;;1.75;1.40;;;;;;;;;;4945970;28;105797;-62
2021/01/29 06:47:50;;;;;;;2.20;1.25;;;;;;;;;;4953972;28;105309;-62
2021/01/29 06:50:38;;;;;;;2.72;1.58;;;;;;;;;;4952252;28;104992;-62
2021/01/29 06:53:32;;;;;;;2.40;1.48;;;;;;;;;;4953343;28;105572;-62
2021/01/29 06:56:06;;;;;;;1.50;1.30;;;;;;;;;;4951916;28;106022;-62
2021/01/29 06:58:41;;;;;;;1.80;1.10;;;;;;;;;;4944449;28;106345;-62
2021/01/29 07:01:30;;;;;;;2.10;1.35;;;;;;;;;;4953368;28;105655;-62
2021/01/29 07:04:03;;;;;;;1.98;1.30;;;;;;;;;;4953461;28;105645;-62
2021/01/29 07:06:44;;;;;;;1.40;1.20;;;;;;;;;;4951224;28;105016;-62
2021/01/29 07:09:18;;;;;;;1.50;1.30;;;;;;;;;;4953394;28;105032;-62
2021/01/29 07:11:47;;;;;;;1.25;1.10;;;;;;;;;;4951917;28;105685;-62
2021/01/29 07:14:33;;;;;;;2.47;1.30;;;;;;;;;;4952961;28;105540;-62
2021/01/29 07:17:20;;;;;;;1.35;1.20;;;;;;;;;;4952729;28;105234;-62
2021/01/29 07:20:07;;;;;;;1.48;1.17;;;;;;;;;;4955629;28;105285;-62
2021/01/29 07:22:55;;;;;;;1.83;1.38;;;;;;;;;;4958772;28;105032;-62
2021/01/29 07:25:34;;;;;;;2.53;1.40;;;;;;;;;;4957643;28;104965;-62
2021/01/29 07:28:09;;;;;;;1.25;1.15;;;;;;;;;;4952985;28;105798;-62
2021/01/29 07:31:10;;;;;;;2.67;1.20;;;;;;;;;;4956793;28;105223;-62
2021/01/29 07:33:57;;;;;;;1.00;0.90;;;;;;;;;;4953785;28;106874;-62
2021/01/29 07:36:44;;;;;;;1.52;1.08;;;;;;;;;;4955008;28;105043;-62
2021/01/29 07:39:25;;;;;;;1.42;1.10;;;;;;;;;;4957968;28;105188;-62
2021/01/29 07:41:50;;;;;;;1.75;1.10;;;;;;;;;;4950284;28;105232;-62
2021/01/29 07:44:45;;;;;;;2.08;1.23;;;;;;;;;;4935998;28;108053;-62
2021/01/29 07:47:17;;;;;;;1.42;1.13;;;;;;;;;;4942081;28;105035;-62
2021/01/29 07:50:21;;;;;;;2.22;1.48;;;;;;;;;;4952676;28;105749;-62
2021/01/29 07:52:54;;;;;;;1.75;1.10;;;;;;;;;;4937535;28;106200;-62
2021/01/29 07:55:22;;;;;;;1.40;1.17;;;;;;;;;;4957344;28;105723;-62
2021/01/29 07:58:12;;;;;;;1.35;1.25;;;;;;;;;;4954764;28;105723;-62
2021/01/29 08:00:55;;;;;;;1.88;1.20;;;;;;;;;;4940652;28;104962;-62
2021/01/29 08:04:00;;;;;;;1.55;1.20;;;;;;;;;;4957874;28;107279;-62
2021/01/29 08:06:32;;;;;;;2.63;1.55;;;;;;;;;;4958846;28;105082;-62
2021/01/29 08:09:19;;;;;;;1.05;1.00;;;;;;;;;;4956038;28;105006;-62
2021/01/29 08:11:47;;;;;;;0.95;0.93;;;;;;;;;;4973902;28;108552;-62
2021/01/29 08:14:41;;;;;;;1.52;0.90;;;;;;;;;;4940302;28;105038;-62
2021/01/29 08:17:16;;;;;;;1.00;1.00;;;;;;;;;;4960568;28;105763;-62
2021/01/29 08:19:48;;;;;;;1.23;1.13;;;;;;;;;;4953076;28;106067;-62
2021/01/29 08:22:46;;;;;;;1.92;1.30;;;;;;;;;;4965619;28;105390;-62
2021/01/29 08:25:23;;;;;;;1.10;1.00;;;;;;;;;;4956126;28;105696;-62
2021/01/29 08:28:16;;;;;;;1.45;1.00;;;;;;;;;;4954055;28;106314;-62
2021/01/29 08:31:28;;;;;;;1.60;1.13;;;;;;;;;;4956185;28;105042;-62
2021/01/29 08:34:56;;;;;;;1.35;1.10;;;;;;;;;;4955409;28;105578;-61
2021/01/29 08:37:21;;;;;;;1.00;0.90;;;;;;;;;;4957679;28;108173;-62
2021/01/29 08:40:05;;;;;;;1.00;0.98;;;;;;;;;;4956725;28;105017;-61
2021/01/29 08:43:11;;;;;;;0.93;0.82;;;;;;;;;;4938512;28;106017;-63
2021/01/29 08:45:51;;;;;;;0.93;0.85;;;;;;;;;;4942493;28;105130;-61
2021/01/29 08:48:22;;;;;;;1.30;1.10;;;;;;;;;;4955368;28;105013;-61
2021/01/29 08:51:19;;;;;;;1.75;1.17;;;;;;;;;;4954660;28;105565;-61
2021/01/29 08:54:26;;;;;;;2.30;1.35;;;;;;;;;;4953225;28;104996;-61
2021/01/29 08:57:04;;;;;;;1.30;1.15;;;;;;;;;;4954643;28;105439;-61
2021/01/29 08:59:31;;;;;;;0.80;0.80;;;;;;;;;;4941762;28;105608;-61
2021/01/29 09:02:12;;;;;;;1.10;0.90;;;;;;;;;;4939442;28;105508;-61
2021/01/29 09:04:50;;;;;;;0.90;0.80;;;;;;;;;;4952977;28;104925;-61
2021/01/29 09:07:29;;;;;;;0.90;0.90;;;;;;;;;;4954406;28;105209;-62
2021/01/29 09:10:17;;;;;;;14.88;12.95;;;;;;;;;;4939582;28;105447;-62
2021/01/29 09:12:42;;;;;;;15.90;13.88;;;;;;;;;;4953428;28;105671;-62
2021/01/29 09:15:22;;;;;;;15.25;13.30;;;;;;;;;;4936717;28;105156;-62
2021/01/29 09:17:55;;;;;;;17.73;14.73;;;;;;;;;;4954356;28;104904;-62
2021/01/29 09:20:27;;;;;;;17.38;15.10;;;;;;;;;;4938316;28;105273;-62
2021/01/29 09:23:04;;;;;;;17.27;14.30;;;;;;;;;;4953921;28;105458;-62
2021/01/29 09:25:34;;;;;;;16.20;14.13;;;;;;;;;;4938652;28;105582;-62
2021/01/29 09:28:17;;;;;;;20.60;15.15;;;;;;;;;;4940542;28;105395;-62
2021/01/29 09:30:57;;;;;;;18.65;15.27;;;;;;;;;;4938453;28;105197;-62
2021/01/29 09:33:40;;;;;;;17.80;15.20;;;;;;;;;;4938249;28;105597;-63
2021/01/29 09:36:26;;;;;;;18.27;15.65;;;;;;;;;;4940815;28;105066;-63
2021/01/29 09:39:14;;;;;;;15.63;13.70;;;;;;;;;;4953569;28;105513;-63
2021/01/29 09:41:45;;;;;;;1.42;1.33;;;;;;;;;;4954781;28;105627;-60
2021/01/29 09:44:23;;;;;;;1.10;1.00;;;;;;;;;;4939688;28;104958;-60
2021/01/29 09:46:52;;;;;;;1.58;1.20;;;;;;;;;;4941076;28;106299;-60
2021/01/29 09:49:22;;;;;;;1.10;1.00;;;;;;;;;;4947756;28;105037;-60
2021/01/29 09:52:00;;;;;;;0.98;0.90;;;;;;;;;;4954081;28;105495;-60
2021/01/29 09:54:43;;;;;;;0.90;0.90;;;;;;;;;;4952771;28;106259;-60
2021/01/29 09:57:20;;;;;;;0.80;0.80;;;;;;;;;;4958255;28;105042;-60
2021/01/29 10:00:04;;;;;;;1.00;0.90;;;;;;;;;;4939247;28;105032;-60
2021/01/29 10:02:58;;;;;;;1.20;0.97;;;;;;;;;;4951130;28;105369;-62
2021/01/29 10:05:33;;;;;;;0.98;0.90;;;;;;;;;;4954962;28;104985;-62
2021/01/29 10:08:20;;;;;;;0.77;0.77;;;;;;;;;;4955705;28;105639;-62
2021/01/29 10:11:11;;;;;;;0.88;0.88;;;;;;;;;;4957741;28;105646;-62
2021/01/29 10:13:52;;;;;;;0.90;0.90;;;;;;;;;;4942459;28;105679;-61
2021/01/29 10:16:23;;;;;;;17.25;14.93;;;;;;;;;;4952480;28;105507;-61
2021/01/29 10:18:55;;;;;;;6.47;4.78;;;;;;;;;;4954073;28;105537;-61
2021/01/29 10:21:20;;;;;;;1.02;1.00;;;;;;;;;;4962301;28;105595;-61
2021/01/29 10:23:54;;;;;;;1.15;1.10;;;;;;;;;;4935355;28;105956;-61
2021/01/29 10:26:30;;;;;;;1.15;1.05;;;;;;;;;;4938254;28;106536;-62
2021/01/29 10:29:24;;;;;;;0.95;0.90;;;;;;;;;;4936962;28;106091;-62
2021/01/29 10:32:09;;;;;;;1.13;0.98;;;;;;;;;;4939143;28;105572;-61
2021/01/29 10:35:00;;;;;;;0.80;0.80;;;;;;;;;;4958512;28;105230;-61
2021/01/29 10:38:21;;;;;;;1.15;0.80;;;;;;;;;;4940816;28;105353;-61
2021/01/29 10:41:07;;;;;;;0.70;0.70;;;;;;;;;;4912505;28;105023;-61
2021/01/29 10:43:54;;;;;;;0.90;0.85;;;;;;;;;;4938027;28;105197;-61
2021/01/29 10:46:41;;;;;;;0.80;0.80;;;;;;;;;;4951998;28;105685;-62
2021/01/29 10:49:16;;;;;;;1.10;0.80;;;;;;;;;;4956431;28;105066;-61
2021/01/29 10:51:53;;;;;;;0.85;0.80;;;;;;;;;;4952139;28;106137;-62
2021/01/29 10:54:18;;;;;;;0.70;0.70;;;;;;;;;;4955205;28;105191;-62
2021/01/29 10:56:46;;;;;;;0.88;0.88;;;;;;;;;;4955674;28;105101;-62
2021/01/29 10:59:20;;;;;;;1.83;0.80;;;;;;;;;;4955540;28;105663;-62
2021/01/29 11:02:00;;;;;;;26.42;23.70;;;;;;;;;;4969533;28;105007;-61
2021/01/29 11:04:32;;;;;;;30.98;27.10;;;;;;;;;;4936620;28;105105;-58
2021/01/29 11:07:28;;;;;;;35.45;26.58;;;;;;;;;;4933433;28;105606;-54
2021/01/29 11:09:58;;;;;;;32.08;26.83;;;;;;;;;;4950225;28;105558;-59
2021/01/29 11:12:30;;;;;;;41.00;34.63;;;;;;;;;;4942953;28;105689;-57
2021/01/29 11:15:15;;;;;;;39.65;35.33;;;;;;;;;;4921624;28;104982;-57
2021/01/29 11:17:51;;;;;;;36.70;31.92;;;;;;;;;;4950515;28;105045;-57
2021/01/29 11:20:31;;;;;;;31.63;27.55;;;;;;;;;;4959339;28;105242;-56
2021/01/29 11:22:59;;;;;;;1.95;1.20;;;;;;;;;;4952467;28;104949;-56
2021/01/29 11:25:40;;;;;;;3.47;2.92;;;;;;;;;;4953618;28;105386;-57
2021/01/29 11:28:29;;;;;;;4.43;2.70;;;;;;;;;;4958585;28;105785;-57
2021/01/29 11:31:00;;;;;;;1.70;1.13;;;;;;;;;;4943161;28;104991;-57
2021/01/29 11:33:27;;;;;;;2.10;1.70;;;;;;;;;;4956357;28;105053;-56
2021/01/29 11:36:00;;;;;;;2.25;1.00;;;;;;;;;;4937331;28;105099;-56
2021/01/29 11:38:31;;;;;;;1.23;1.05;;;;;;;;;;4955282;28;105337;-57
2021/01/29 11:41:11;;;;;;;1.93;1.10;;;;;;;;;;4954679;28;105783;-57
2021/01/29 11:43:47;;;;;;;2.67;1.00;;;;;;;;;;4957517;28;105727;-56
2021/01/29 11:46:19;;;;;;;1.90;1.10;;;;;;;;;;4941172;28;105351;-59
2021/01/29 11:48:51;;;;;;;3.35;1.20;;;;;;;;;;4957818;28;106337;-59
2021/01/29 11:51:31;;;;;;;2.20;1.10;;;;;;;;;;4956781;28;105335;-57
2021/01/29 11:53:59;;;;;;;3.58;1.35;;;;;;;;;;4954126;28;104946;-59
2021/01/29 11:56:31;;;;;;;1.77;1.20;;;;;;;;;;4953335;28;105160;-59
2021/01/29 11:59:21;;;;;;;4.28;1.38;;;;;;;;;;4954931;28;104891;-59
2021/01/29 12:01:49;;;;;;;1.92;1.13;;;;;;;;;;4954375;28;105444;-51
2021/01/29 12:04:21;;;;;;;2.03;1.08;;;;;;;;;;4953862;28;106251;-60
2021/01/29 12:06:49;;;;;;;2.55;1.10;;;;;;;;;;4959395;28;105397;-60
2021/01/29 12:09:20;;;;;;;2.47;1.55;;;;;;;;;;4952170;28;105659;-61
2021/01/29 12:11:51;;;;;;;4.18;1.40;;;;;;;;;;4936632;28;105292;-63
2021/01/29 12:14:29;;;;;;;;;;;;;;;;;;4955389;28;105322;-60
2021/01/29 12:16:59;;;;;;;7.63;4.47;;;;;;;;;;4953699;28;105835;-60
2021/01/29 12:19:36;;;;;;;3.17;1.60;;;;;;;;;;4938864;28;104993;-60
2021/01/29 12:22:27;;;;;;;3.67;1.63;;;;;;;;;;4940572;28;105195;-60
2021/01/29 12:25:08;;;;;;;6.20;1.80;;;;;;;;;;4957711;28;105494;-60
2021/01/29 12:27:51;;;;;;;3.38;1.50;;;;;;;;;;4954862;28;105396;-60
2021/01/29 12:30:25;;;;;;;3.03;1.45;;;;;;;;;;4942095;28;105307;-60
2021/01/29 12:33:22;;;;;;;6.28;1.88;;;;;;;;;;4954640;28;105502;-60
2021/01/29 12:35:54;;;;;;;4.03;1.80;;;;;;;;;;4949658;28;105053;-60
2021/01/29 12:38:39;;;;;;;4.90;1.83;;;;;;;;;;4939304;28;105670;-60
2021/01/29 12:41:16;;;;;;;16.13;11.82;;;;;;;;;;4954101;28;105294;-60
2021/01/29 12:44:16;;;;;;;4.22;1.90;;;;;;;;;;4952295;28;105564;-61
2021/01/29 12:47:01;;;;;;;3.78;1.80;;;;;;;;;;4951491;28;105570;-60
2021/01/29 12:49:36;;;;;;;5.88;2.00;;;;;;;;;;4941273;28;104891;-60
2021/01/29 12:52:24;;;;;;;6.22;2.03;;;;;;;;;;4952366;28;106508;-60
2021/01/29 12:55:13;;;;;;;3.92;1.80;;;;;;;;;;4956443;28;105204;-60
2021/01/29 12:57:38;;;;;;;4.35;1.63;;;;;;;;;;4946539;28;105770;-60
2021/01/29 13:00:38;;;;;;;6.30;2.17;;;;;;;;;;4951942;28;105075;-60
2021/01/29 13:03:11;;;;;;;4.72;1.95;;;;;;;;;;4954794;28;104996;-60
2021/01/29 13:05:43;;;;;;;6.20;2.38;;;;;;;;;;4952709;28;105639;-60
2021/01/29 13:08:08;;;;;;;6.40;2.38;;;;;;;;;;4953649;28;104960;-60
2021/01/29 13:11:04;;;;;;;5.32;2.10;;;;;;;;;;4953093;28;105406;-60
2021/01/29 13:13:54;;;;;;;4.65;1.85;;;;;;;;;;4953986;28;105091;-60
2021/01/29 13:17:05;;;;;;;8.23;2.05;;;;;;;;;;4954141;28;106285;-60
2021/01/29 13:19:31;;;;;;;4.93;1.65;;;;;;;;;;4942461;28;105095;-60
2021/01/29 13:22:20;;;;;;;5.28;1.70;;;;;;;;;;4952448;28;105575;-60
2021/01/29 13:25:01;;;;;;;4.47;1.50;;;;;;;;;;4952686;28;104900;-60
2021/01/29 13:27:28;;;;;;;5.05;1.45;;;;;;;;;;4953591;28;105207;-60
2021/01/29 13:30:17;;;;;;;3.55;1.60;;;;;;;;;;4935206;28;105056;-60
2021/01/29 13:32:46;;;;;;;4.30;1.75;;;;;;;;;;4954900;28;105437;-60
2021/01/29 13:35:12;;;;;;;4.30;1.67;;;;;;;;;;4926601;28;105857;-60
2021/01/29 13:37:37;;;;;;;6.90;1.90;;;;;;;;;;4935027;28;105614;-60
2021/01/29 13:40:12;;;;;;;6.20;2.17;;;;;;;;;;4957540;28;105109;-60
2021/01/29 13:42:39;;;;;;;6.70;1.95;;;;;;;;;;4952525;28;105563;-60
2021/01/29 13:45:04;;;;;;;6.30;1.70;;;;;;;;;;4936521;28;104966;-58
2021/01/29 13:47:32;;;;;;;6.20;2.00;;;;;;;;;;4954444;28;105080;-60
2021/01/29 13:50:14;;;;;;;5.32;1.75;;;;;;;;;;4949300;28;105625;-60
2021/01/29 13:52:47;;;;;;;6.50;2.15;;;;;;;;;;4957568;28;104999;-60
2021/01/29 13:55:43;;;;;;;3.88;1.58;;;;;;;;;;4954490;28;105067;-60
2021/01/29 13:58:28;;;;;;;6.53;1.70;;;;;;;;;;4935600;28;104961;-60
2021/01/29 14:01:03;;;;;;;4.45;1.58;;;;;;;;;;4967598;28;105561;-60
2021/01/29 14:03:47;;;;;;;4.80;1.40;;;;;;;;;;4940186;28;105103;-58
2021/01/29 14:06:13;;;;;;;4.05;1.40;;;;;;;;;;4937276;28;105108;-60
2021/01/29 14:08:39;;;;;;;5.25;1.60;;;;;;;;;;4952364;28;105412;-60
2021/01/29 14:11:11;;;;;;;6.45;2.03;;;;;;;;;;4952359;28;106306;-60
2021/01/29 14:13:48;;;;;;;5.28;1.42;;;;;;;;;;4952350;28;105004;-60
2021/01/29 14:16:36;;;;;;;5.60;1.90;;;;;;;;;;4953444;28;105620;-60
2021/01/29 14:19:17;;;;;;;5.53;2.25;;;;;;;;;;4951664;28;105628;-60
2021/01/29 14:21:48;;;;;;;4.97;2.13;;;;;;;;;;4953101;28;105538;-60
2021/01/29 14:24:32;;;;;;;5.60;2.15;;;;;;;;;;4952130;28;105646;-60
2021/01/29 14:27:29;;;;;;;3.25;1.63;;;;;;;;;;4954744;28;105051;-60
2021/01/29 14:30:36;;;;;;;1.90;0.98;;;;;;;;;;4951743;28;105608;-60
2021/01/29 14:33:11;;;;;;;3.47;1.40;;;;;;;;;;4951188;28;104936;-60
2021/01/29 14:35:59;;;;;;;2.72;1.00;;;;;;;;;;4952501;28;105050;-60
2021/01/29 14:38:46;;;;;;;1.83;0.82;;;;;;;;;;4953692;28;106213;-60
2021/01/29 14:41:20;;;;;;;1.95;0.98;;;;;;;;;;4951862;28;105681;-61
2021/01/29 14:44:10;;;;;;;0.88;0.77;;;;;;;;;;4952944;28;104974;-63
2021/01/29 14:46:43;;;;;;;1.50;0.70;;;;;;;;;;4950956;28;105266;-61
2021/01/29 14:49:46;;;;;;;0.82;0.70;;;;;;;;;;4952290;28;105012;-62
2021/01/29 14:52:13;;;;;;;1.48;0.77;;;;;;;;;;4958575;28;104926;-60
2021/01/29 14:54:49;;;;;;;3.35;1.00;;;;;;;;;;4950611;28;105725;-59
2021/01/29 14:57:30;;;;;;;0.98;0.88;;;;;;;;;;4936694;28;105380;-58
2021/01/29 14:59:57;;;;;;;1.58;1.00;;;;;;;;;;4934622;28;105116;-58
2021/01/29 15:03:02;;;;;;;1.55;0.90;;;;;;;;;;4919850;28;106822;-58
2021/01/29 15:05:32;;;;;;;3.70;1.42;;;;;;;;;;4955034;28;105827;-61
2021/01/29 15:07:57;;;;;;;2.55;1.20;;;;;;;;;;4953933;28;105683;-62
2021/01/29 15:10:25;;;;;;;1.88;1.00;;;;;;;;;;4934544;28;105120;-62
2021/01/29 15:12:51;;;;;;;4.47;1.58;;;;;;;;;;4933471;28;105087;-62
2021/01/29 15:15:20;;;;;;;2.33;1.13;;;;;;;;;;4939130;28;105656;-63
2021/01/29 15:18:15;;;;;;;2.88;1.20;;;;;;;;;;4950965;28;105209;-60
2021/01/29 15:20:46;;;;;;;2.78;0.85;;;;;;;;;;4949718;28;105488;-59
2021/01/29 15:23:14;;;;;;;2.97;1.30;;;;;;;;;;4952069;28;105504;-60
2021/01/29 15:25:52;;;;;;;2.17;1.00;;;;;;;;;;4952020;28;105053;-58
2021/01/29 15:28:24;;;;;;;2.80;1.10;;;;;;;;;;4961427;28;105011;-60
2021/01/29 15:30:52;;;;;;;2.47;1.20;;;;;;;;;;4952835;28;105056;-62
2021/01/29 15:33:29;;;;;;;1.75;0.82;;;;;;;;;;4935342;28;105187;-60
2021/01/29 15:38:39;;;;;;;2.70;1.20;;;;;;;;;;4955086;28;105873;-59
2021/01/29 15:41:26;;;;;;;5.88;1.88;;;;;;;;;;4954882;28;105209;-60
2021/01/29 15:43:56;;;;;;;4.50;1.88;;;;;;;;;;4952193;28;105599;-60
2021/01/29 15:46:43;;;;;;;3.53;1.27;;;;;;;;;;4936978;28;105506;-61
2021/01/29 15:49:10;;;;;;;2.45;1.20;;;;;;;;;;4953131;28;105320;-60
2021/01/29 15:51:44;;;;;;;3.25;1.38;;;;;;;;;;4951358;28;105292;-59
2021/01/29 15:54:13;;;;;;;3.17;1.40;;;;;;;;;;4954655;28;105686;-60
2021/01/29 15:56:41;;;;;;;4.47;1.73;;;;;;;;;;4952181;28;105273;-60